createdAt,value
2019-02-08T00:00:33.279Z,1.30
2019-02-08T00:03:00.125Z,1.10
2019-02-08T00:05:28.809Z,1.25
2019-02-08T00:07:55.657Z,1.85
2019-02-08T00:10:22.495Z,0.80
2019-02-08T00:12:49.359Z,0.85
2019-02-08T00:15:18.948Z,0.90
2019-02-08T00:17:45.836Z,1.00
2019-02-08T00:20:21.235Z,1.10
2019-02-08T00:22:48.080Z,1.17
2019-02-08T00:25:16.362Z,0.90
2019-02-08T00:27:43.610Z,2.83
2019-02-08T00:30:25.817Z,3.80
2019-02-08T00:32:53.275Z,2.00
2019-02-08T00:35:20.628Z,1.40
2019-02-08T00:37:47.673Z,1.40
2019-02-08T00:40:19.284Z,0.80
2019-02-08T00:42:46.176Z,0.60
2019-02-08T00:45:17.807Z,0.70
2019-02-08T00:47:44.778Z,0.80
2019-02-08T00:50:14.999Z,1.00
2019-02-08T00:52:41.841Z,1.17
2019-02-08T00:55:09.299Z,1.30
2019-02-08T00:57:36.088Z,1.00
2019-02-08T01:00:11.324Z,0.70
2019-02-08T01:02:39.965Z,0.70
2019-02-08T01:05:09.828Z,0.90
2019-02-08T01:07:37.954Z,1.00
2019-02-08T01:10:11.555Z,1.10
2019-02-08T01:12:38.398Z,1.00
2019-02-08T01:15:08.928Z,1.00
2019-02-08T01:17:36.487Z,1.42
2019-02-08T01:20:06.860Z,1.27
2019-02-08T01:22:33.759Z,1.10
2019-02-08T01:25:00.603Z,1.10
2019-02-08T01:27:27.445Z,1.20
2019-02-08T01:29:54.595Z,1.20
2019-02-08T01:32:21.439Z,1.25
2019-02-08T01:34:48.224Z,1.55
2019-02-08T01:37:15.125Z,1.07
2019-02-08T01:39:41.987Z,1.45
2019-02-08T01:42:08.784Z,1.33
2019-02-08T01:44:35.655Z,1.20
2019-02-08T01:47:02.499Z,1.25
2019-02-08T01:49:29.649Z,0.98
2019-02-08T01:51:56.799Z,0.93
2019-02-08T01:54:23.643Z,1.35
2019-02-08T01:56:50.486Z,1.32
2019-02-08T01:59:17.638Z,1.50
2019-02-08T02:01:44.481Z,1.12
2019-02-08T02:04:11.631Z,0.90
2019-02-08T02:06:38.782Z,1.05
2019-02-08T02:09:06.760Z,1.80
2019-02-08T02:11:33.700Z,1.90
2019-02-08T02:14:00.847Z,1.27
2019-02-08T02:16:27.692Z,1.47
2019-02-08T02:18:54.533Z,1.83
2019-02-08T02:21:21.684Z,1.70
2019-02-08T02:23:55.870Z,1.82
2019-02-08T02:26:17.217Z,1.30
2019-02-08T02:28:44.364Z,1.20
2019-02-08T02:31:11.208Z,1.42
2019-02-08T02:33:38.050Z,1.30
2019-02-08T02:36:04.945Z,1.80
2019-02-08T02:38:31.738Z,1.70
2019-02-08T02:40:58.581Z,1.40
2019-02-08T02:43:25.734Z,1.00
2019-02-08T02:45:52.577Z,1.40
2019-02-08T02:48:19.419Z,1.70
2019-02-08T02:50:46.572Z,1.40
2019-02-08T02:53:13.719Z,1.80
2019-02-08T02:55:40.562Z,1.30
2019-02-08T02:58:07.717Z,1.87
2019-02-08T03:00:41.055Z,1.60
2019-02-08T03:03:08.159Z,1.60
2019-02-08T03:05:35.923Z,1.53
2019-02-08T03:08:04.778Z,2.20
2019-02-08T03:10:31.764Z,1.82
2019-02-08T03:12:58.605Z,1.73
2019-02-08T03:15:25.754Z,1.70
2019-02-08T03:17:53.520Z,1.40
2019-02-08T03:20:22.120Z,1.70
2019-02-08T03:22:49.049Z,1.40
2019-02-08T03:25:18.516Z,1.77
2019-02-08T03:27:45.501Z,1.87
2019-02-08T03:30:16.954Z,2.60
2019-02-08T03:32:44.103Z,1.77
2019-02-08T03:35:14.631Z,1.80
2019-02-08T03:37:41.474Z,1.72
2019-02-08T03:40:12.004Z,2.50
2019-02-08T03:42:39.157Z,2.42
2019-02-08T03:45:08.710Z,2.17
2019-02-08T03:47:35.607Z,1.60
2019-02-08T03:50:05.522Z,1.72
2019-02-08T03:52:32.979Z,1.73
2019-02-08T03:55:00.183Z,2.10
2019-02-08T03:57:27.280Z,2.05
2019-02-08T03:59:54.123Z,1.70
2019-02-08T04:02:20.967Z,2.35
2019-02-08T04:04:48.119Z,2.30
2019-02-08T04:07:14.962Z,2.00
2019-02-08T04:09:42.112Z,2.00
2019-02-08T04:12:09.262Z,2.62
2019-02-08T04:14:36.106Z,1.77
2019-02-08T04:17:03.575Z,1.77
2019-02-08T04:19:30.713Z,1.77
2019-02-08T04:21:57.556Z,1.72
2019-02-08T04:24:29.976Z,2.13
2019-02-08T04:26:53.086Z,2.17
2019-02-08T04:29:19.935Z,3.30
2019-02-08T04:31:46.774Z,3.05
2019-02-08T04:34:13.923Z,2.60
2019-02-08T04:36:40.769Z,2.27
2019-02-08T04:39:07.610Z,1.80
2019-02-08T04:41:34.762Z,2.77
2019-02-08T04:44:01.604Z,2.62
2019-02-08T04:46:28.448Z,1.98
2019-02-08T04:48:55.338Z,2.75
2019-02-08T04:51:22.453Z,3.60
2019-02-08T04:53:49.592Z,3.27
2019-02-08T04:56:17.356Z,4.08
2019-02-08T04:58:44.199Z,3.35
2019-02-08T05:01:11.043Z,2.77
2019-02-08T05:03:38.198Z,3.00
2019-02-08T05:06:05.040Z,2.62
2019-02-08T05:08:31.886Z,3.40
2019-02-08T05:10:58.771Z,2.40
2019-02-08T05:13:25.568Z,2.37
2019-02-08T05:15:52.417Z,3.17
2019-02-08T05:18:19.560Z,2.00
2019-02-08T05:20:46.407Z,3.35
2019-02-08T05:23:13.248Z,2.90
2019-02-08T05:25:41.348Z,3.00
2019-02-08T05:28:08.169Z,3.00
2019-02-08T05:30:35.622Z,3.42
2019-02-08T05:33:04.309Z,9.05
2019-02-08T05:35:31.150Z,6.47
2019-02-08T05:37:57.994Z,6.00
2019-02-08T05:40:25.249Z,4.15
2019-02-08T05:42:52.032Z,5.17
2019-02-08T05:45:21.637Z,4.37
2019-02-08T05:47:48.491Z,4.00
2019-02-08T05:50:20.205Z,5.22
2019-02-08T05:52:47.347Z,4.67
2019-02-08T05:55:20.966Z,5.53
2019-02-08T05:57:48.715Z,5.03
2019-02-08T06:00:38.597Z,5.70
2019-02-08T06:03:06.056Z,5.17
2019-02-08T06:05:33.303Z,6.22
2019-02-08T06:08:00.361Z,5.90
2019-02-08T06:10:27.301Z,6.15
2019-02-08T06:12:54.088Z,4.37
2019-02-08T06:15:22.657Z,4.67
2019-02-08T06:17:49.777Z,4.40
2019-02-08T06:20:19.488Z,4.83
2019-02-08T06:22:46.638Z,4.33
2019-02-08T06:25:15.354Z,3.67
2019-02-08T06:27:43.284Z,4.50
2019-02-08T06:30:13.760Z,4.50
2019-02-08T06:32:40.770Z,4.90
2019-02-08T06:35:08.430Z,4.15
2019-02-08T06:37:35.378Z,3.98
2019-02-08T06:40:05.604Z,4.50
2019-02-08T06:42:33.059Z,4.60
2019-02-08T06:45:00.230Z,4.10
2019-02-08T06:47:27.054Z,6.83
2019-02-08T06:49:53.897Z,3.95
2019-02-08T06:52:21.047Z,4.42
2019-02-08T06:54:48.198Z,4.03
2019-02-08T06:57:16.883Z,4.10
2019-02-08T06:59:45.876Z,4.65
2019-02-08T07:02:17.328Z,3.80
2019-02-08T07:05:03.219Z,5.50
2019-02-08T07:07:31.904Z,4.75
2019-02-08T07:10:03.508Z,3.50
2019-02-08T07:12:32.349Z,5.08
2019-02-08T07:15:04.152Z,3.52
2019-02-08T07:17:38.938Z,4.20
2019-02-08T07:20:28.822Z,4.10
2019-02-08T07:23:09.798Z,4.70
2019-02-08T07:25:54.768Z,4.90
2019-02-08T07:28:32.360Z,5.53
2019-02-08T07:31:13.339Z,6.75
2019-02-08T07:33:42.330Z,9.85
2019-02-08T07:36:14.394Z,12.03
2019-02-08T07:38:46.460Z,9.28
2019-02-08T07:41:15.761Z,10.70
2019-02-08T07:43:59.810Z,9.00
2019-02-08T07:46:35.566Z,10.23
2019-02-08T07:49:11.005Z,10.68
2019-02-08T07:51:39.999Z,11.80
2019-02-08T07:54:18.048Z,12.18
2019-02-08T07:56:49.662Z,11.22
2019-02-08T07:59:18.656Z,10.28
2019-02-08T08:02:02.700Z,9.65
2019-02-08T08:04:44.904Z,8.70
2019-02-08T08:07:13.898Z,7.60
2019-02-08T08:09:43.466Z,7.30
2019-02-08T08:12:18.381Z,9.98
2019-02-08T08:14:50.711Z,9.18
2019-02-08T08:17:25.878Z,9.27
2019-02-08T08:20:11.124Z,7.42
2019-02-08T08:22:57.321Z,7.05
2019-02-08T08:25:35.277Z,7.97
2019-02-08T08:28:06.673Z,7.83
2019-02-08T08:30:48.264Z,7.45
2019-02-08T08:33:33.846Z,6.08
2019-02-08T08:36:19.428Z,7.67
2019-02-08T08:38:53.030Z,9.45
2019-02-08T08:41:32.328Z,8.05
2019-02-08T08:44:21.124Z,9.20
2019-02-08T08:47:03.327Z,9.13
2019-02-08T08:49:40.001Z,8.23
2019-02-08T08:52:13.603Z,9.53
2019-02-08T08:55:16.388Z,8.65
2019-02-08T08:58:05.043Z,9.38
2019-02-08T09:00:53.702Z,8.35
2019-02-08T09:03:50.341Z,8.88
2019-02-08T09:06:33.159Z,8.30
2019-02-08T09:09:06.453Z,7.40
2019-02-08T09:12:03.103Z,8.10
2019-02-08T09:14:39.768Z,8.93
2019-02-08T09:17:25.697Z,7.30
2019-02-08T09:20:05.404Z,6.72
2019-02-08T09:23:09.726Z,5.50
2019-02-08T09:25:49.932Z,5.20
2019-02-08T09:28:19.436Z,5.20
2019-02-08T09:30:55.754Z,5.97
2019-02-08T09:33:47.788Z,4.25
2019-02-08T09:36:16.781Z,2.80
2019-02-08T09:38:51.919Z,4.35
2019-02-08T09:41:23.552Z,4.95
2019-02-08T09:43:55.436Z,3.90
2019-02-08T09:46:24.268Z,4.65
2019-02-08T09:49:09.746Z,5.70
2019-02-08T09:51:50.992Z,5.45
2019-02-08T09:54:53.776Z,5.67
2019-02-08T09:57:48.266Z,4.03
2019-02-08T10:00:34.155Z,3.80
2019-02-08T10:03:27.726Z,3.10
2019-02-08T10:06:13.308Z,3.50
2019-02-08T10:08:58.584Z,3.47
2019-02-08T10:12:02.906Z,4.80
2019-02-08T10:14:39.272Z,5.12
2019-02-08T10:17:25.166Z,5.60
2019-02-08T10:19:58.205Z,3.55
2019-02-08T10:23:04.010Z,3.22
2019-02-08T10:25:37.302Z,3.58
2019-02-08T10:28:13.983Z,2.33
2019-02-08T10:30:58.432Z,2.90
2019-02-08T10:33:27.630Z,5.45
2019-02-08T10:35:59.696Z,5.47
2019-02-08T10:38:34.833Z,3.80
2019-02-08T10:41:09.671Z,4.42
2019-02-08T10:43:55.557Z,3.52
2019-02-08T10:46:41.447Z,5.62
2019-02-08T10:49:16.275Z,6.08
2019-02-08T10:51:51.420Z,15.15
2019-02-08T10:54:26.554Z,570.52
2019-02-08T10:57:10.597Z,534.50
2019-02-08T10:59:51.878Z,999.90
2019-02-08T11:02:23.958Z,999.90
2019-02-08T11:05:09.842Z,999.90
2019-02-08T11:07:44.924Z,703.42
2019-02-08T11:10:19.540Z,630.95
2019-02-08T11:12:48.332Z,860.20
2019-02-08T11:15:34.016Z,473.40
2019-02-08T11:18:15.046Z,448.97
2019-02-08T11:20:42.198Z,2.40
2019-02-08T11:23:09.041Z,12.33
2019-02-08T13:55:06.841Z,2.12
2019-02-08T15:15:53.899Z,2.10
2019-02-08T15:20:47.910Z,1.53
2019-02-08T15:23:15.042Z,1.93
2019-02-08T15:25:41.800Z,2.73
2019-02-08T15:28:09.046Z,1.93
2019-02-08T15:30:37.145Z,1.93
2019-02-08T15:33:04.566Z,2.00
2019-02-08T15:35:31.718Z,3.53
2019-02-08T15:37:58.867Z,1.77
2019-02-08T15:40:32.471Z,2.47
2019-02-08T15:42:59.565Z,3.43
2019-02-08T15:45:26.770Z,2.72
2019-02-08T15:47:53.923Z,3.60
2019-02-08T15:50:21.071Z,2.37
2019-02-08T15:52:48.222Z,2.73
2019-02-08T15:55:30.425Z,3.00
2019-02-08T15:57:57.577Z,4.03
2019-02-08T16:00:27.544Z,3.00
2019-02-08T16:02:54.335Z,2.47
2019-02-08T16:05:22.417Z,2.53
2019-02-08T16:07:49.557Z,2.40
2019-02-08T16:10:16.960Z,2.10
2019-02-08T16:12:43.861Z,1.37
2019-02-08T16:15:17.096Z,2.25
2019-02-08T16:17:44.244Z,3.22
2019-02-08T16:20:14.219Z,2.33
2019-02-08T16:22:41.061Z,3.17
2019-02-08T16:25:11.220Z,3.00
2019-02-08T16:27:39.959Z,2.65
2019-02-08T16:30:08.964Z,2.80
2019-02-08T16:32:35.808Z,2.50
2019-02-08T16:35:05.089Z,2.45
2019-02-08T16:37:31.952Z,3.25
2019-02-08T16:39:58.795Z,2.20
2019-02-08T16:42:25.945Z,2.10
2019-02-08T16:44:53.096Z,2.10
2019-02-08T16:47:20.246Z,1.90
2019-02-08T16:49:47.397Z,2.05
2019-02-08T16:52:14.550Z,1.67
2019-02-08T16:54:41.698Z,2.00
2019-02-08T16:57:08.848Z,1.55
2019-02-08T16:59:36.000Z,1.57
2019-02-08T18:44:54.870Z,4.20
2019-02-08T19:06:57.073Z,3.60
2019-02-08T20:22:57.201Z,8.10
2019-02-08T20:25:27.121Z,8.60
2019-02-08T20:27:53.960Z,9.55
2019-02-08T20:30:23.876Z,10.10
2019-02-08T20:32:51.025Z,7.80
2019-02-08T20:35:19.712Z,8.00
2019-02-08T20:37:47.477Z,8.90
2019-02-08T20:40:20.716Z,8.40
2019-02-08T20:42:47.941Z,9.40
2019-02-08T20:47:46.217Z,5.95
2019-02-08T20:50:14.903Z,7.20
2019-02-08T20:52:42.054Z,6.00
2019-02-08T20:55:10.004Z,5.83
2019-02-08T20:57:36.970Z,6.43
2019-02-08T21:00:23.781Z,6.70
2019-02-08T21:02:52.177Z,5.05
2019-02-08T21:05:19.516Z,7.30
2019-02-08T21:07:46.461Z,7.53
2019-02-08T21:10:13.304Z,7.22
2019-02-08T21:12:40.148Z,5.92
2019-02-08T21:15:09.448Z,5.60
2019-02-08T21:17:36.292Z,4.97
2019-02-08T21:20:10.200Z,4.53
2019-02-08T21:22:37.354Z,4.03
2019-02-08T21:25:07.881Z,4.25
2019-02-08T21:27:34.724Z,4.30
2019-02-08T21:30:01.800Z,3.77
2019-02-08T21:32:29.027Z,4.55
2019-02-08T21:34:55.868Z,3.72
2019-02-08T21:37:23.019Z,4.10
2019-02-08T21:39:49.862Z,3.87
2019-02-08T21:42:16.708Z,4.15
2019-02-08T21:44:43.549Z,3.90
2019-02-08T21:47:10.392Z,4.43
2019-02-08T21:49:37.237Z,4.47
2019-02-08T21:52:04.386Z,3.58
2019-02-08T21:54:32.068Z,3.98
2019-02-08T21:56:59.301Z,4.58
2019-02-08T21:59:26.451Z,5.00
2019-02-08T22:01:53.413Z,5.17
2019-02-08T22:04:20.445Z,4.30
2019-02-08T22:06:47.597Z,4.40
2019-02-08T22:09:14.749Z,4.97
2019-02-08T22:11:41.591Z,4.40
2019-02-08T22:14:08.484Z,5.07
2019-02-08T22:16:35.276Z,5.58
2019-02-08T22:19:02.120Z,5.20
2019-02-08T22:21:28.963Z,4.58
2019-02-08T22:23:55.807Z,4.67
2019-02-08T22:26:22.650Z,4.83
2019-02-08T22:28:49.801Z,4.83
2019-02-08T22:31:16.645Z,4.85
2019-02-08T22:33:43.486Z,5.08
2019-02-08T22:36:10.618Z,4.55
2019-02-08T22:38:37.481Z,4.12
2019-02-08T22:41:04.630Z,4.20
2019-02-08T22:43:31.781Z,4.90
2019-02-08T22:45:58.626Z,4.70
2019-02-08T22:48:25.352Z,5.20
2019-02-08T22:50:52.322Z,3.95
2019-02-08T22:53:19.154Z,4.58
2019-02-08T22:55:45.999Z,4.00
2019-02-08T22:58:12.944Z,3.92
2019-02-08T23:00:52.328Z,4.80
2019-02-08T23:03:19.431Z,3.70
2019-02-08T23:05:46.583Z,4.05
2019-02-08T23:08:13.425Z,3.55
2019-02-08T23:10:40.577Z,3.90
2019-02-08T23:13:08.646Z,3.90
2019-02-08T23:15:35.800Z,3.67
2019-02-08T23:18:04.790Z,3.43
2019-02-08T23:20:31.633Z,3.20
2019-02-08T23:22:58.783Z,2.47
2019-02-08T23:25:25.934Z,1.80
2019-02-08T23:27:52.778Z,2.50
2019-02-08T23:30:21.416Z,2.70
2019-02-08T23:32:48.307Z,2.72
2019-02-08T23:35:15.458Z,2.92
2019-02-08T23:37:42.609Z,2.37
2019-02-08T23:40:12.217Z,2.80
2019-02-08T23:42:39.061Z,2.98
2019-02-08T23:45:09.282Z,3.80
2019-02-08T23:47:36.434Z,3.37
2019-02-08T23:50:06.962Z,3.20
2019-02-08T23:52:33.806Z,4.35
2019-02-08T23:55:00.956Z,4.80
2019-02-08T23:57:27.800Z,4.42
2019-02-08T23:59:54.951Z,5.00
